Time;durP1;ratioP1;P1;durP2;ratioP2;P2;SDS_P1;SDS_P2;PMS_P1;PMS_P2;Temp;Humidity;BMP_temperature;BMP_pressure;BME280_temperature;BME280_humidity;BME280_pressure;Samples;Min_cycle;Max_cycle;Signal;HPM_P1;HPM_P2
2021/12/03 00:01:03;;;;;;;15.40;6.67;;;;;;;2.31;64.46;95767.80;1672256;84;27540;-80
2021/12/03 00:03:30;;;;;;;12.63;5.90;;;;;;;2.34;64.21;95757.27;1613642;87;25329;-79
2021/12/03 00:05:57;;;;;;;15.68;5.62;;;;;;;2.30;63.84;95770.16;1672293;84;26347;-79
2021/12/03 00:08:25;;;;;;;13.20;5.45;;;;;;;2.24;63.86;95780.28;1614228;87;26264;-78
2021/12/03 00:10:55;;;;;;;10.98;5.35;;;;;;;2.23;63.43;95787.95;1672357;84;25679;-78
2021/12/03 00:13:23;;;;;;;14.05;5.00;;;;;;;2.23;63.42;95793.28;1641939;86;28280;-78
2021/12/03 00:15:51;;;;;;;11.57;4.80;;;;;;;2.25;63.28;95800.56;1641737;86;25811;-80
2021/12/03 00:18:18;;;;;;;11.35;4.30;;;;;;;2.27;62.56;95802.52;1641814;86;25756;-79
2021/12/03 00:20:45;;;;;;;12.25;5.10;;;;;;;2.16;62.29;95813.73;1641892;86;26181;-80
2021/12/03 00:23:13;;;;;;;14.90;4.70;;;;;;;2.05;62.10;95819.63;1641900;87;25736;-79
2021/12/03 00:25:40;;;;;;;10.60;5.15;;;;;;;2.03;62.27;95821.66;1641812;86;28223;-79
2021/12/03 00:28:08;;;;;;;11.05;4.67;;;;;;;2.06;61.82;95823.39;1641740;85;25779;-79
2021/12/03 00:30:36;;;;;;;11.80;4.05;;;;;;;1.94;61.58;95818.81;1639761;86;25745;-79
2021/12/03 00:33:06;;;;;;;10.75;3.60;;;;;;;1.80;61.10;95825.42;1712424;83;26845;-79
2021/12/03 00:35:33;;;;;;;11.75;4.20;;;;;;;1.77;61.40;95827.13;1712755;83;25826;-78
2021/12/03 00:38:01;;;;;;;10.40;4.15;;;;;;;1.73;61.16;95822.38;1712687;83;27384;-78
2021/12/03 00:40:32;;;;;;;10.23;4.50;;;;;;;1.63;60.58;95821.41;1712592;83;25229;-78
2021/12/03 00:43:00;;;;;;;12.65;4.75;;;;;;;1.57;60.75;95830.14;1712768;83;25742;-80
2021/12/03 00:45:29;;;;;;;12.98;4.78;;;;;;;1.52;60.66;95841.06;1712833;83;26030;-78
2021/12/03 00:47:56;;;;;;;15.10;4.33;;;;;;;1.48;60.74;95852.58;1712974;83;25702;-80
2021/12/03 00:50:23;;;;;;;12.63;4.47;;;;;;;1.47;60.75;95858.91;1712962;83;27345;-80
2021/12/03 00:52:52;;;;;;;14.00;4.95;;;;;;;1.47;60.76;95854.11;1712731;83;25762;-79
2021/12/03 00:55:21;;;;;;;10.98;4.50;;;;;;;1.49;60.99;95848.91;1712495;83;25784;-79
2021/12/03 00:57:47;;;;;;;9.03;4.50;;;;;;;1.52;61.10;95852.52;1712799;83;27032;-80
2021/12/03 01:00:23;;;;;;;9.65;4.47;;;;;;;1.52;60.58;95859.17;1712767;83;25698;-81
2021/12/03 01:02:52;;;;;;;11.73;4.53;;;;;;;1.47;60.56;95866.89;1712907;83;27422;-79
2021/12/03 01:05:20;;;;;;;12.30;4.65;;;;;;;1.42;60.46;95865.34;1712818;83;25698;-79
2021/12/03 01:07:46;;;;;;;9.05;4.30;;;;;;;1.41;60.48;95867.67;1712781;83;25777;-79
2021/12/03 01:10:14;;;;;;;8.68;3.98;;;;;;;1.38;60.25;95865.39;1712872;83;25985;-79
2021/12/03 01:12:40;;;;;;;10.35;4.30;;;;;;;1.34;60.04;95869.44;1712722;83;25788;-79
2021/12/03 01:15:12;;;;;;;10.78;4.33;;;;;;;1.31;60.32;95867.19;1712524;83;28324;-79
2021/12/03 01:17:39;;;;;;;13.62;4.58;;;;;;;1.36;60.29;95871.41;1712870;83;25793;-79
2021/12/03 01:20:09;;;;;;;13.93;5.03;;;;;;;1.33;60.06;95875.77;1712806;83;25747;-78
2021/12/03 01:22:37;;;;;;;12.40;5.03;;;;;;;1.30;60.16;95881.48;1712753;83;25703;-78
2021/12/03 01:25:06;;;;;;;9.85;4.20;;;;;;;1.33;60.16;95884.56;1712828;83;25916;-80
2021/12/03 01:27:33;;;;;;;12.98;4.83;;;;;;;1.36;60.16;95885.52;1712802;83;28247;-78
2021/12/03 01:30:00;;;;;;;9.50;4.40;;;;;;;1.29;59.85;95872.69;1712721;83;25715;-78
2021/12/03 01:32:26;;;;;;;10.70;4.62;;;;;;;1.30;59.95;95873.52;1712575;83;25824;-78
2021/12/03 01:34:53;;;;;;;9.70;4.03;;;;;;;1.32;59.91;95864.84;1712849;83;26017;-79
2021/12/03 01:37:20;;;;;;;12.15;5.03;;;;;;;1.29;59.87;95860.73;1712859;83;25779;-79
2021/12/03 01:39:46;;;;;;;12.53;5.12;;;;;;;1.22;59.84;95859.83;1712803;83;28187;-78
2021/12/03 01:42:13;;;;;;;10.98;4.30;;;;;;;1.18;59.83;95864.41;1712777;83;25301;-79
2021/12/03 01:44:39;;;;;;;11.63;4.75;;;;;;;1.20;59.92;95863.72;1712815;83;25783;-78
2021/12/03 01:47:06;;;;;;;13.80;5.28;;;;;;;1.20;60.08;95867.70;1712802;83;25974;-78
2021/12/03 01:49:33;;;;;;;10.05;4.72;;;;;;;1.18;59.96;95883.83;1712779;83;25762;-80
2021/12/03 01:51:59;;;;;;;13.90;5.50;;;;;;;1.17;59.94;95884.02;1712828;83;27356;-78
2021/12/03 01:54:26;;;;;;;12.53;5.80;;;;;;;1.18;60.19;95892.31;1712524;83;26095;-78
2021/12/03 01:56:53;;;;;;;15.10;5.58;;;;;;;1.14;60.11;95895.84;1712717;83;25781;-81
2021/12/03 01:59:19;;;;;;;10.75;5.03;;;;;;;1.13;59.96;95903.50;1712737;83;26210;-80
2021/12/03 02:01:46;;;;;;;16.20;5.75;;;;;;;1.04;59.95;95909.45;1712901;83;25773;-80
2021/12/03 02:04:13;;;;;;;11.68;5.15;;;;;;;1.05;60.18;95915.09;1712759;83;27415;-78
2021/12/03 02:06:39;;;;;;;12.85;6.15;;;;;;;1.02;60.01;95926.08;1712760;83;25851;-79
2021/12/03 02:09:06;;;;;;;14.43;5.70;;;;;;;1.01;60.21;95927.09;1712745;83;25692;-78
2021/12/03 02:11:34;;;;;;;12.18;6.25;;;;;;;1.00;60.34;95934.74;1712551;83;26837;-78
2021/12/03 02:14:01;;;;;;;14.50;5.45;;;;;;;0.96;60.27;95948.11;1712846;83;25701;-79
2021/12/03 02:16:28;;;;;;;12.03;5.78;;;;;;;0.95;60.22;95950.95;1712748;83;27444;-79
2021/12/03 02:18:55;;;;;;;15.15;5.85;;;;;;;0.91;60.21;95956.30;1712581;83;25419;-79
2021/12/03 02:21:22;;;;;;;14.23;6.08;;;;;;;0.88;60.42;95956.16;1712830;83;25756;-79
2021/12/03 02:23:51;;;;;;;14.63;6.00;;;;;;;0.86;60.55;95970.64;1712763;83;26839;-80
2021/12/03 02:26:20;;;;;;;12.30;6.17;;;;;;;0.88;60.74;95976.09;1712797;83;25772;-78
2021/12/03 02:28:50;;;;;;;14.93;5.87;;;;;;;0.89;60.66;95974.26;1712755;83;27581;-78
2021/12/03 02:31:20;;;;;;;16.42;6.00;;;;;;;0.88;60.73;95981.41;1712539;82;25515;-78
2021/12/03 02:33:48;;;;;;;14.55;6.35;;;;;;;0.94;60.83;95982.00;1712721;83;25741;-78
2021/12/03 02:36:17;;;;;;;13.62;6.40;;;;;;;0.92;60.78;95980.03;1712743;83;26718;-78
2021/12/03 02:38:45;;;;;;;15.00;6.30;;;;;;;0.88;60.87;95982.73;1712588;83;25707;-77
2021/12/03 02:41:13;;;;;;;13.10;5.75;;;;;;;0.83;60.83;95987.80;1712748;83;28218;-77
2021/12/03 02:43:40;;;;;;;13.40;6.20;;;;;;;0.84;60.96;95992.61;1712650;83;25744;-78
2021/12/03 02:46:06;;;;;;;15.80;6.30;;;;;;;0.85;60.98;95995.55;1712779;83;25850;-78
2021/12/03 02:48:35;;;;;;;14.33;6.12;;;;;;;0.89;61.13;95993.68;1712728;83;25978;-77
2021/12/03 02:51:04;;;;;;;15.58;6.03;;;;;;;0.97;60.96;96008.17;1712771;83;25840;-78
2021/12/03 02:53:31;;;;;;;12.58;5.65;;;;;;;0.99;61.02;96006.16;1712687;83;27423;-77
2021/12/03 02:55:57;;;;;;;12.88;6.10;;;;;;;1.04;61.06;96010.43;1712583;83;25732;-77
2021/12/03 02:58:24;;;;;;;13.18;5.83;;;;;;;1.06;60.96;96011.07;1712628;83;25715;-77
2021/12/03 03:00:52;;;;;;;11.80;4.90;;;;;;;1.06;60.90;96011.58;1712601;83;26214;-77
2021/12/03 03:03:20;;;;;;;13.38;6.20;;;;;;;1.08;61.01;96017.03;1712713;83;26125;-77
2021/12/03 03:05:55;;;;;;;14.15;5.35;;;;;;;1.10;61.06;96019.47;1712656;83;26888;-77
2021/12/03 03:08:23;;;;;;;13.43;5.28;;;;;;;1.14;60.99;96018.61;1712691;83;25767;-77
2021/12/03 03:10:51;;;;;;;12.98;5.10;;;;;;;1.16;60.99;96015.27;1710395;83;25705;-77
2021/12/03 03:13:18;;;;;;;14.40;5.12;;;;;;;1.17;60.91;96022.23;1712670;83;26004;-77
2021/12/03 03:15:45;;;;;;;10.95;4.80;;;;;;;1.16;60.77;96025.39;1712778;83;25844;-77
2021/12/03 03:18:17;;;;;;;13.83;4.67;;;;;;;1.16;60.79;96032.03;1712636;83;27436;-78
2021/12/03 03:20:45;;;;;;;13.70;4.72;;;;;;;1.19;60.75;96036.98;1712741;83;25825;-78
2021/12/03 03:23:14;;;;;;;10.75;4.42;;;;;;;1.22;60.70;96047.73;1712612;83;25755;-78
2021/12/03 03:25:43;;;;;;;7.50;3.87;;;;;;;1.22;60.70;96042.41;1712693;83;26468;-77
2021/12/03 03:28:11;;;;;;;7.17;3.92;;;;;;;1.20;60.52;96047.94;1712539;83;25703;-77
2021/12/03 03:30:43;;;;;;;10.38;3.95;;;;;;;1.20;60.45;96051.10;1712722;83;28041;-77
2021/12/03 03:33:10;;;;;;;8.40;4.10;;;;;;;1.21;60.32;96058.86;1685228;85;25796;-78
2021/12/03 03:35:37;;;;;;;9.18;3.58;;;;;;;1.22;60.30;96053.04;1685227;84;25723;-78
2021/12/03 03:38:04;;;;;;;7.85;3.30;;;;;;;1.22;60.25;96062.34;1685212;84;26187;-77
2021/12/03 03:40:31;;;;;;;7.70;3.30;;;;;;;1.21;60.12;96054.88;1685251;84;25716;-77
2021/12/03 03:43:00;;;;;;;8.18;3.25;;;;;;;1.15;60.09;96059.62;1685256;84;27379;-79
2021/12/03 03:45:28;;;;;;;9.83;4.30;;;;;;;1.09;59.89;96070.47;1685155;85;25819;-78
2021/12/03 03:47:56;;;;;;;8.78;3.35;;;;;;;1.02;60.18;96064.77;1685348;84;25740;-79
2021/12/03 03:50:23;;;;;;;10.55;3.75;;;;;;;1.01;60.33;96066.59;1685301;84;26361;-77
2021/12/03 03:52:53;;;;;;;8.25;3.65;;;;;;;0.99;60.24;96069.11;1685247;84;25727;-77
2021/12/03 03:55:21;;;;;;;9.60;3.40;;;;;;;1.01;60.27;96071.91;1685035;85;28085;-77
2021/12/03 03:57:50;;;;;;;6.62;3.22;;;;;;;1.02;60.32;96073.56;1685168;84;26508;-78
2021/12/03 04:00:22;;;;;;;6.45;2.95;;;;;;;1.05;60.38;96071.88;1685295;85;25988;-77
2021/12/03 04:02:48;;;;;;;8.65;3.02;;;;;;;1.08;60.12;96072.84;1685385;84;26103;-78
2021/12/03 04:05:15;;;;;;;6.92;3.17;;;;;;;1.11;60.04;96070.80;1685183;84;25668;-78
2021/12/03 04:07:42;;;;;;;8.15;2.90;;;;;;;1.11;60.05;96082.75;1685298;85;27335;-78
2021/12/03 04:10:09;;;;;;;11.05;3.47;;;;;;;1.07;60.01;96083.65;1685250;85;25732;-78
2021/12/03 04:12:37;;;;;;;6.17;2.98;;;;;;;1.09;59.99;96090.41;1684982;85;25743;-77
2021/12/03 04:15:08;;;;;;;9.95;3.58;;;;;;;1.07;59.95;96104.41;1685212;85;25987;-77
2021/12/03 04:17:35;;;;;;;9.35;3.62;;;;;;;1.03;59.77;96095.64;1685392;85;26365;-77
2021/12/03 04:20:05;;;;;;;7.15;3.17;;;;;;;0.97;59.72;96098.52;1685333;85;27453;-77
2021/12/03 04:22:33;;;;;;;8.80;4.20;;;;;;;0.90;59.71;96105.58;1685267;84;25752;-78
2021/12/03 04:25:00;;;;;;;7.85;3.33;;;;;;;0.83;59.71;96105.18;1685383;85;25785;-77
2021/12/03 04:27:27;;;;;;;9.95;3.50;;;;;;;0.81;59.75;96105.36;1685253;84;26627;-77
2021/12/03 04:29:54;;;;;;;6.45;3.35;;;;;;;0.76;59.70;96101.59;1685280;84;25688;-77
2021/12/03 04:32:22;;;;;;;11.00;4.80;;;;;;;0.68;59.83;96107.81;1700236;83;27371;-78
2021/12/03 04:34:49;;;;;;;9.88;3.45;;;;;;;0.69;59.94;96122.25;1715474;82;25715;-77
2021/12/03 04:37:15;;;;;;;13.05;4.12;;;;;;;0.71;59.98;96124.73;1715691;83;26237;-77
2021/12/03 04:39:42;;;;;;;7.87;3.75;;;;;;;0.76;59.97;96128.97;1715581;83;25820;-78
2021/12/03 04:42:09;;;;;;;7.42;3.05;;;;;;;0.78;59.98;96129.63;1715681;83;25814;-78
2021/12/03 04:44:37;;;;;;;9.33;3.30;;;;;;;0.71;59.82;96124.73;1715674;83;28033;-77
2021/12/03 04:47:04;;;;;;;8.20;2.95;;;;;;;0.70;59.89;96139.02;1715413;83;25281;-78
2021/12/03 04:49:31;;;;;;;8.03;2.95;;;;;;;0.70;59.86;96146.98;1707680;83;25255;-78
2021/12/03 04:51:58;;;;;;;5.87;2.80;;;;;;;0.68;59.95;96146.33;1669285;84;26128;-78
2021/12/03 04:54:26;;;;;;;6.05;2.40;;;;;;;0.66;59.99;96157.13;1669217;85;26288;-77
2021/12/03 04:56:55;;;;;;;5.40;2.92;;;;;;;0.62;60.05;96153.67;1668926;84;27448;-78
2021/12/03 04:59:23;;;;;;;7.45;3.58;;;;;;;0.53;60.09;96152.10;1668748;84;25983;-77
2021/12/03 05:01:53;;;;;;;6.47;3.00;;;;;;;0.45;60.30;96162.80;1669186;84;25873;-77
2021/12/03 05:04:18;;;;;;;7.47;2.85;;;;;;;0.42;60.50;96177.75;1668883;84;26086;-79
2021/12/03 05:07:03;;;;;;;4.42;2.20;;;;;;;0.35;60.45;96174.50;1669250;84;25702;-77
2021/12/03 05:09:23;;;;;;;7.62;2.65;;;;;;;0.28;60.46;96184.66;1667367;84;28400;-78
2021/12/03 05:11:50;;;;;;;3.17;1.87;;;;;;;0.20;60.66;96186.88;1669060;84;26379;-77
2021/12/03 05:14:17;;;;;;;50.52;17.62;;;;;;;0.13;60.86;96184.59;1676470;83;25781;-77
2021/12/03 05:16:45;;;;;;;97.97;37.23;;;;;;;0.11;60.97;96177.83;1651945;86;26159;-78
2021/12/03 05:19:12;;;;;;;57.45;25.85;;;;;;;0.13;61.04;96193.05;1651850;86;25482;-79
2021/12/03 05:21:39;;;;;;;17.40;6.65;;;;;;;0.12;61.12;96198.85;1651849;86;27469;-77
2021/12/03 05:24:06;;;;;;;21.80;9.93;;;;;;;0.07;61.01;96197.25;1651736;86;25818;-78
2021/12/03 05:26:33;;;;;;;9.80;4.47;;;;;;;0.06;62.21;96192.11;1651811;86;25304;-79
2021/12/03 05:29:00;;;;;;;17.67;7.65;;;;;;;0.18;62.02;96199.99;1651866;86;26804;-78
2021/12/03 05:31:26;;;;;;;36.15;17.55;;;;;;;0.25;61.85;96198.27;1651869;86;25798;-77
2021/12/03 05:33:53;;;;;;;24.47;12.58;;;;;;;0.30;61.88;96206.05;1648094;85;28194;-77
2021/12/03 05:36:20;;;;;;;12.70;6.55;;;;;;;0.39;61.79;96202.82;1663680;86;25717;-77
2021/12/03 05:38:46;;;;;;;6.12;3.05;;;;;;;0.38;61.83;96217.59;1663881;84;25743;-78
2021/12/03 05:41:13;;;;;;;11.57;6.65;;;;;;;0.30;61.85;96216.66;1663738;85;26586;-78
2021/12/03 05:43:39;;;;;;;9.75;4.60;;;;;;;0.26;61.86;96223.31;1707250;84;25713;-78
2021/12/03 05:46:06;;;;;;;15.93;8.03;;;;;;;0.25;61.84;96215.52;1707137;83;27366;-78
2021/12/03 05:48:33;;;;;;;8.65;4.70;;;;;;;0.22;61.96;96218.05;1707144;84;25614;-78
2021/12/03 05:50:59;;;;;;;6.83;4.78;;;;;;;0.17;62.02;96216.91;1707090;83;25697;-78
2021/12/03 05:53:26;;;;;;;7.97;3.05;;;;;;;0.16;62.11;96220.06;1707129;84;25692;-79
2021/12/03 05:55:53;;;;;;;7.33;3.22;;;;;;;0.15;62.27;96222.89;1706890;84;25658;-78
2021/12/03 05:58:20;;;;;;;7.20;4.58;;;;;;;0.13;62.60;96225.72;1707154;84;27374;-78
2021/12/03 06:00:48;;;;;;;11.33;5.53;;;;;;;0.09;62.49;96228.92;1707039;84;25682;-78
2021/12/03 06:03:15;;;;;;;6.30;3.30;;;;;;;0.05;62.55;96237.72;1707091;83;25765;-78
2021/12/03 06:05:42;;;;;;;12.85;5.67;;;;;;;0.05;62.68;96247.00;1707135;83;26306;-77
2021/12/03 06:08:09;;;;;;;10.13;4.47;;;;;;;0.10;62.74;96241.19;1707112;83;25646;-77
2021/12/03 06:10:37;;;;;;;10.13;4.47;;;;;;;0.05;62.70;96243.52;1707170;83;27492;-78
2021/12/03 06:13:04;;;;;;;12.98;5.60;;;;;;;0.01;62.72;96251.00;1707109;83;26338;-78
2021/12/03 06:15:31;;;;;;;56.05;25.97;;;;;;;-0.05;62.78;96262.31;1710512;82;25961;-78
2021/12/03 06:17:58;;;;;;;25.10;12.75;;;;;;;-0.02;62.75;96264.63;1711235;83;25963;-78
2021/12/03 06:20:26;;;;;;;12.15;6.62;;;;;;;-0.04;62.58;96265.30;1711226;83;25694;-78
2021/12/03 06:22:53;;;;;;;7.12;3.95;;;;;;;-0.03;62.61;96273.59;1711136;83;28174;-78
2021/12/03 06:25:20;;;;;;;9.63;4.22;;;;;;;0.01;62.56;96280.18;1711093;83;25466;-78
2021/12/03 06:27:47;;;;;;;9.45;4.70;;;;;;;-0.02;62.62;96288.50;1711176;83;25739;-78
2021/12/03 06:30:18;;;;;;;56.60;19.85;;;;;;;-0.10;62.82;96292.00;1711235;83;26620;-78
2021/12/03 06:32:45;;;;;;;7.28;3.55;;;;;;;-0.11;62.99;96297.48;1711217;83;25723;-78
2021/12/03 06:35:15;;;;;;;9.03;4.55;;;;;;;-0.18;62.73;96296.02;1710837;83;27479;-78
2021/12/03 06:37:43;;;;;;;4.72;2.67;;;;;;;-0.21;62.79;96301.66;1711053;83;25684;-78
2021/12/03 06:40:14;;;;;;;15.53;6.87;;;;;;;-0.19;62.82;96313.43;1711141;83;25808;-78
2021/12/03 06:42:41;;;;;;;9.58;5.08;;;;;;;-0.15;62.76;96317.41;1711231;83;26057;-78
2021/12/03 06:45:11;;;;;;;9.63;5.72;;;;;;;-0.12;62.68;96319.72;1711251;83;25652;-78
2021/12/03 06:47:38;;;;;;;7.70;4.45;;;;;;;-0.10;62.57;96323.00;1711310;83;28224;-78
2021/12/03 06:50:09;;;;;;;7.95;3.70;;;;;;;-0.08;62.58;96324.99;1711021;83;26321;-78
2021/12/03 06:52:39;;;;;;;6.42;3.40;;;;;;;-0.05;62.58;96325.98;1711220;83;25692;-78
2021/12/03 06:55:09;;;;;;;5.47;2.80;;;;;;;0.00;62.56;96329.76;1711065;83;26747;-78
2021/12/03 06:57:34;;;;;;;10.60;4.90;;;;;;;0.03;62.50;96333.91;1710657;83;25854;-78
2021/12/03 07:00:01;;;;;;;9.63;6.25;;;;;;;0.04;62.55;96348.83;1711083;83;27623;-78
2021/12/03 07:02:27;;;;;;;13.62;6.50;;;;;;;0.09;62.50;96351.80;1710999;83;25738;-78
2021/12/03 07:04:54;;;;;;;7.47;5.55;;;;;;;0.06;62.42;96350.81;1711163;83;25320;-79
2021/12/03 07:07:20;;;;;;;16.95;7.97;;;;;;;0.05;62.42;96353.13;1711214;83;26027;-78
2021/12/03 07:09:48;;;;;;;17.52;7.75;;;;;;;0.06;62.52;96368.06;1711169;83;25827;-78
2021/12/03 07:12:15;;;;;;;30.02;17.57;;;;;;;0.04;62.59;96378.02;1711217;83;27389;-78
2021/12/03 07:14:42;;;;;;;23.25;12.90;;;;;;;0.07;62.59;96376.35;1711129;83;25768;-78
2021/12/03 07:17:08;;;;;;;16.45;10.75;;;;;;;0.09;62.68;96380.16;1711161;83;25734;-78
2021/12/03 07:19:35;;;;;;;9.58;5.47;;;;;;;0.05;62.69;96379.67;1711163;83;25990;-78
2021/12/03 07:22:02;;;;;;;7.12;4.70;;;;;;;0.07;62.60;96390.11;1711187;83;25215;-78
2021/12/03 07:24:28;;;;;;;16.50;8.20;;;;;;;0.02;62.66;96387.96;1711109;83;28180;-78
2021/12/03 07:26:55;;;;;;;19.62;10.80;;;;;;;0.05;62.71;96388.13;1711036;83;25854;-78
2021/12/03 07:29:22;;;;;;;22.00;13.13;;;;;;;0.08;62.61;96396.58;1711173;83;25709;-77
2021/12/03 07:31:50;;;;;;;9.25;6.05;;;;;;;0.14;62.68;96407.00;1711135;83;26862;-78
2021/12/03 07:34:17;;;;;;;8.48;5.80;;;;;;;0.13;62.51;96399.53;1711025;83;25748;-78
2021/12/03 07:36:43;;;;;;;14.23;7.53;;;;;;;0.14;62.62;96401.19;1711129;83;27487;-78
2021/12/03 07:39:10;;;;;;;8.95;5.35;;;;;;;0.14;62.69;96401.69;1711084;83;25759;-78
2021/12/03 07:41:40;;;;;;;6.20;3.40;;;;;;;0.15;62.81;96395.38;1711137;83;25724;-77
2021/12/03 07:44:05;;;;;;;8.10;3.85;;;;;;;0.20;62.77;96405.83;1710701;83;26004;-78
2021/12/03 07:46:32;;;;;;;9.55;4.22;;;;;;;0.25;62.70;96404.80;1710883;83;25727;-78
2021/12/03 07:48:58;;;;;;;4.42;2.60;;;;;;;0.27;62.69;96402.80;1710951;83;27360;-78
2021/12/03 07:51:26;;;;;;;5.30;2.92;;;;;;;0.31;62.65;96406.78;1714954;82;25766;-78
2021/12/03 07:53:53;;;;;;;4.10;2.27;;;;;;;0.41;62.44;96405.73;1678369;84;25763;-78
2021/12/03 07:56:19;;;;;;;6.62;2.00;;;;;;;0.46;62.25;96410.05;1678113;84;26707;-78
2021/12/03 07:58:46;;;;;;;4.67;2.33;;;;;;;0.46;62.06;96415.36;1678073;84;25679;-78
2021/12/03 08:01:13;;;;;;;7.10;3.17;;;;;;;0.49;61.97;96415.81;1678326;85;26572;-78
2021/12/03 08:03:40;;;;;;;15.48;6.20;;;;;;;0.55;61.97;96428.91;1702619;82;25758;-78
2021/12/03 08:06:09;;;;;;;73.57;25.30;;;;;;;0.57;61.57;96426.92;1710161;83;25325;-78
2021/12/03 08:08:40;;;;;;;75.70;27.77;;;;;;;0.57;61.40;96428.25;1678362;85;27011;-78
2021/12/03 08:11:08;;;;;;;;;;;;;;;0.62;61.41;96430.70;1680901;84;25660;-78
2021/12/03 08:13:35;;;;;;;22.50;11.25;;;;;;;0.66;61.22;96436.50;1678388;85;27574;-78
2021/12/03 08:16:04;;;;;;;13.15;7.37;;;;;;;0.65;61.21;96429.53;1678065;83;25743;-79
2021/12/03 08:18:31;;;;;;;5.97;3.17;;;;;;;0.65;61.23;96433.02;1678142;83;26409;-78
2021/12/03 08:20:59;;;;;;;3.33;2.72;;;;;;;0.70;61.01;96443.13;1677961;83;25975;-78
2021/12/03 08:23:26;;;;;;;15.08;7.47;;;;;;;0.71;60.99;96447.44;1678061;83;25262;-79
2021/12/03 08:25:53;;;;;;;10.82;4.92;;;;;;;0.75;61.00;96443.92;1677914;85;27590;-79
2021/12/03 08:28:19;;;;;;;8.80;2.90;;;;;;;0.75;60.91;96448.73;1678037;85;25815;-78
2021/12/03 08:30:46;;;;;;;5.87;2.87;;;;;;;0.75;60.85;96451.38;1676175;83;25685;-79
2021/12/03 08:33:12;;;;;;;8.00;2.20;;;;;;;0.78;60.93;96464.83;1652101;86;25975;-78
2021/12/03 08:35:39;;;;;;;4.17;2.45;;;;;;;0.74;60.62;96463.02;1651567;85;25775;-79
2021/12/03 08:38:05;;;;;;;3.62;2.10;;;;;;;0.68;60.85;96468.53;1671833;84;28336;-79
2021/12/03 08:40:32;;;;;;;5.37;2.33;;;;;;;0.69;60.86;96473.34;1639133;85;25795;-79
2021/12/03 08:43:00;;;;;;;5.78;2.98;;;;;;;0.69;60.87;96467.53;1681067;84;25825;-79
2021/12/03 08:45:26;;;;;;;9.20;5.53;;;;;;;0.76;60.96;96474.30;1681258;84;26060;-79
2021/12/03 08:47:58;;;;;;;42.75;16.30;;;;;;;0.81;60.83;96474.62;1681320;84;25727;-79
2021/12/03 08:51:13;;;;;;;30.55;13.22;;;;;;;0.83;60.60;96481.09;1677522;84;27465;-79
2021/12/03 08:55:17;;;;;;;23.47;15.13;;;;;;;0.84;60.56;96498.69;1683884;84;25734;-80
2021/12/03 08:57:44;;;;;;;25.60;14.20;;;;;;;0.87;60.61;96496.49;1682735;83;26103;-79
2021/12/03 09:00:17;;;;;;;14.30;8.88;;;;;;;0.86;60.57;96502.80;1671601;84;25756;-79
2021/12/03 09:02:44;;;;;;;8.10;4.17;;;;;;;0.88;60.59;96507.95;1671183;85;27360;-79
2021/12/03 09:05:11;;;;;;;7.42;4.70;;;;;;;0.87;60.63;96511.11;1667625;85;25259;-79
2021/12/03 09:07:39;;;;;;;6.42;3.85;;;;;;;0.78;60.81;96512.64;1667681;85;26517;-80
2021/12/03 09:10:11;;;;;;;4.97;2.80;;;;;;;0.76;60.97;96520.78;1667727;85;26051;-79
2021/12/03 09:12:38;;;;;;;6.15;3.30;;;;;;;0.75;60.80;96524.94;1667873;85;25919;-80
2021/12/03 09:15:13;;;;;;;6.22;3.47;;;;;;;0.73;61.03;96529.92;1669183;84;27038;-79
2021/12/03 09:17:42;;;;;;;7.45;3.20;;;;;;;0.74;61.14;96532.08;1667034;85;25689;-81
2021/12/03 09:20:55;;;;;;;4.47;2.75;;;;;;;0.75;60.94;96540.87;1638160;87;26062;-79
2021/12/03 09:22:48;;;;;;;6.40;3.98;;;;;;;0.63;60.83;96540.41;1662777;85;26968;-80
2021/12/03 09:25:19;;;;;;;8.53;4.72;;;;;;;0.49;60.90;96531.81;1671785;85;25270;-79
2021/12/03 09:27:45;;;;;;;14.10;7.75;;;;;;;0.45;61.17;96536.66;1660166;85;28074;-79
2021/12/03 09:30:16;;;;;;;17.57;7.25;;;;;;;0.53;61.21;96546.42;1660375;84;25864;-80
2021/12/03 09:32:49;;;;;;;21.50;10.90;;;;;;;0.54;61.17;96544.10;1672292;85;25773;-79
2021/12/03 09:35:12;;;;;;;17.35;8.78;;;;;;;0.59;61.25;96545.76;1680558;84;26009;-79
2021/12/03 09:37:38;;;;;;;14.15;6.60;;;;;;;0.67;61.32;96545.73;1672111;85;25730;-79
2021/12/03 09:40:08;;;;;;;10.80;5.28;;;;;;;0.69;61.21;96551.70;1652361;86;28157;-80
2021/12/03 09:42:39;;;;;;;7.97;5.30;;;;;;;0.66;61.21;96557.34;1672045;85;25730;-79
2021/12/03 09:45:09;;;;;;;9.85;6.25;;;;;;;0.68;61.24;96554.03;1652361;86;25771;-80
2021/12/03 09:47:35;;;;;;;9.93;5.10;;;;;;;0.75;61.35;96558.97;1672055;85;26093;-80
2021/12/03 09:50:08;;;;;;;13.43;6.08;;;;;;;0.66;61.47;96558.17;1652457;86;25681;-80
2021/12/03 09:53:05;;;;;;;14.93;7.08;;;;;;;0.63;61.66;96566.48;1671851;85;27277;-80
2021/12/03 09:55:17;;;;;;;9.03;5.45;;;;;;;0.63;61.52;96561.16;1649330;86;25930;-79
2021/12/03 10:03:40;;;;;;;47.35;22.67;;;;;;;0.72;61.63;96565.98;1672106;85;25658;-79
2021/12/03 10:07:28;;;;;;;15.58;8.63;;;;;;;0.79;61.47;96569.59;1649498;86;27499;-80
2021/12/03 10:20:12;;;;;;;15.95;7.62;;;;;;;0.74;61.10;96566.61;1671721;85;27472;-81
2021/12/03 10:36:29;;;;;;;9.03;5.42;;;;;;;3.37;58.48;96568.19;1653592;86;25912;-81
2021/12/03 10:39:10;;;;;;;10.40;5.42;;;;;;;3.28;57.59;96555.44;1666799;85;25305;-81
2021/12/03 10:41:33;;;;;;;8.55;5.20;;;;;;;3.09;57.44;96554.19;1652402;85;26025;-81
2021/12/03 10:46:51;;;;;;;9.10;6.50;;;;;;;3.52;58.10;96559.62;1669369;85;27433;-81
2021/12/03 10:55:10;;;;;;;14.90;7.92;;;;;;;5.17;55.40;96552.48;1654242;85;26022;-80
2021/12/03 11:08:39;;;;;;;9.93;5.12;;;;;;;5.13;53.76;96557.91;1669086;85;26091;-81
2021/12/03 11:27:37;;;;;;;10.00;5.80;;;;;;;3.97;52.78;96555.81;1640272;86;27568;-80
2021/12/03 12:07:27;;;;;;;8.25;4.42;;;;;;;6.51;49.84;96554.81;1672926;85;25815;-80
2021/12/03 13:11:52;;;;;;;7.78;3.62;;;;;;;5.32;44.94;96561.69;1707211;83;25706;-80
2021/12/03 13:17:04;;;;;;;6.05;2.90;;;;;;;5.67;44.68;96567.83;1707161;84;25248;-81
2021/12/03 14:05:20;;;;;;;19.82;9.43;;;;;;;4.63;43.60;96625.34;1712506;83;25784;-80
2021/12/03 14:22:08;;;;;;;17.45;7.33;;;;;;;3.45;44.54;96652.94;1712731;83;26199;-80
2021/12/03 14:37:38;;;;;;;28.70;12.03;;;;;;;2.34;46.54;96666.19;1712575;83;25681;-80
2021/12/03 14:42:50;;;;;;;34.50;13.62;;;;;;;1.95;47.36;96670.27;1712631;83;26317;-80
2021/12/03 14:45:09;;;;;;;32.55;11.75;;;;;;;1.85;47.68;96667.50;1709097;83;25812;-80
2021/12/03 14:55:40;;;;;;;42.50;16.90;;;;;;;1.17;49.20;96690.23;1647328;86;25921;-80
2021/12/03 14:58:13;;;;;;;32.95;15.48;;;;;;;1.17;49.29;96690.73;1712453;83;25781;-80
2021/12/03 15:03:25;;;;;;;44.10;14.85;;;;;;;1.00;50.19;96701.39;1712472;83;25763;-80
2021/12/03 15:08:17;;;;;;;34.78;16.37;;;;;;;0.87;50.54;96703.73;1712662;83;25713;-80
2021/12/03 15:16:50;;;;;;;;;;;;;;;0.64;51.37;96717.38;1715294;83;25686;-80
2021/12/03 15:27:03;;;;;;;55.67;22.30;;;;;;;0.22;51.87;96728.98;1712436;83;26050;-79
2021/12/03 15:29:21;;;;;;;50.80;20.30;;;;;;;0.16;52.27;96730.94;1695966;83;26325;-80
2021/12/03 15:34:27;;;;;;;53.68;24.40;;;;;;;0.08;52.76;96742.05;1712335;83;26515;-80
2021/12/03 15:39:33;;;;;;;67.22;30.48;;;;;;;-0.03;53.18;96741.85;1706844;84;26060;-80
2021/12/03 16:03:39;;;;;;;140.82;65.10;;;;;;;-0.40;54.28;96748.84;1706837;83;25221;-79
2021/12/03 16:08:48;;;;;;;154.50;66.65;;;;;;;-0.46;54.64;96751.63;1706965;83;25793;-80
2021/12/03 16:51:24;;;;;;;314.85;135.22;;;;;;;-1.06;56.25;96772.47;1707916;83;27443;-79
2021/12/03 16:53:41;;;;;;;290.15;128.87;;;;;;;-1.14;56.41;96778.06;1710269;83;25789;-79
2021/12/03 16:56:25;;;;;;;312.98;138.20;;;;;;;-1.19;56.53;96775.03;1712704;83;25725;-79
2021/12/03 16:58:48;;;;;;;335.77;141.97;;;;;;;-1.20;56.71;96784.45;1711995;83;25693;-79
2021/12/03 17:07:26;;;;;;;379.90;152.38;;;;;;;-1.25;56.91;96790.22;1712698;83;25796;-79
2021/12/03 17:26:04;;;;;;;379.48;171.28;;;;;;;-1.69;57.75;96808.34;1669046;84;26217;-79
2021/12/03 17:44:35;;;;;;;312.45;132.47;;;;;;;-2.05;58.75;96817.52;1672177;85;27422;-79
2021/12/03 17:49:16;;;;;;;300.75;128.38;;;;;;;-2.25;59.08;96818.61;1672109;85;25719;-78
2021/12/03 17:51:52;;;;;;;285.68;124.58;;;;;;;-2.26;59.27;96820.41;1672049;85;26002;-78
2021/12/03 17:57:10;;;;;;;319.87;134.90;;;;;;;-2.26;59.49;96824.38;1671878;85;28335;-79
2021/12/03 18:07:34;;;;;;;271.35;110.52;;;;;;;-2.41;59.43;96835.56;1672111;85;25664;-79
2021/12/03 18:13:05;;;;;;;233.75;97.80;;;;;;;-2.49;59.72;96840.75;1672148;85;25676;-79
2021/12/03 18:15:28;;;;;;;261.60;103.05;;;;;;;-2.54;59.77;96827.47;1669573;85;25743;-79